Terminal Aerodrome Forecast
Issued by NWS

Home | Current Version | Previous Version | Text Only | Print | Product List | Glossary On
Versions: 1 2 3 4 5 6 7 8 9 10 11 12 13 14 15 16 17 18 19 20 21 22 23 24 25 26
000
FTUS41 KBUF 291727
TAFJHW
TAF
KJHW 291727Z 2918/3018 17008KT P6SM BKN250
     FM292200 18006KT P6SM BKN120
     FM300200 18012KT P6SM BKN100
     FM300700 20011KT P6SM BKN060
     FM301300 21011G17KT P6SM VCSH BKN035
     FM301600 22012G21KT 6SM -SHRA BKN035
      AMD LTD TO CLD VIS AND WIND=

USA.gov is the U.S. government's official web portal to all federal, state and local government web resources and services.